Terminal Aerodrome Forecast
Issued by NWS Midland/Odessa, TX

Home | Current Version | Previous Version | Text Only | Print | Product List | Glossary On
Versions: 1 2 3 4 5 6 7 8 9 10 11 12 13 14 15 16 17 18 19 20 21 22 23 24 25 26 27 28 29 30 31 32
969
FTUS44 KMAF 180532
TAFMAF
TAF
KMAF 180532Z 1806/1906 23011KT P6SM FEW250
     FM181000 30014KT P6SM SCT250
     FM181400 01024G34KT P6SM FEW250
     FM182300 03009KT P6SM FEW250=

USA.gov is the U.S. government's official web portal to all federal, state and local government web resources and services.